Time;durP1;ratioP1;P1;durP2;ratioP2;P2;SDS_P1;SDS_P2;PMS_P1;PMS_P2;Temp;Humidity;BMP_temperature;BMP_pressure;BME280_temperature;BME280_humidity;BME280_pressure;Samples;Min_cycle;Max_cycle;Signal;HPM_P1;HPM_P2
2021/10/19 00:00:13;;;;;;;4.97;4.47;;;;;;;;;;5014592;28;20195;-82
2021/10/19 00:02:39;;;;;;;6.10;5.50;;;;;;;;;;5018809;28;20175;-81
2021/10/19 00:05:06;;;;;;;5.93;5.43;;;;;;;;;;5018004;28;20190;-81
2021/10/19 00:07:32;;;;;;;5.00;4.60;;;;;;;;;;5012075;28;20203;-82
2021/10/19 00:09:58;;;;;;;5.57;5.07;;;;;;;;;;5018097;28;20191;-82
2021/10/19 00:12:24;;;;;;;6.00;5.37;;;;;;;;;;5023440;28;20189;-82
2021/10/19 00:14:50;;;;;;;6.27;5.67;;;;;;;;;;5021484;28;20441;-83
2021/10/19 00:17:16;;;;;;;5.70;5.20;;;;;;;;;;5021629;28;20456;-81
2021/10/19 00:19:42;;;;;;;4.93;4.43;;;;;;;;;;5019857;28;20241;-82
2021/10/19 00:22:10;;;;;;;7.38;4.85;;;;;;;;;;5021803;28;20661;-82
2021/10/19 00:24:36;;;;;;;5.50;5.00;;;;;;;;;;5016726;28;20631;-82
2021/10/19 00:27:04;;;;;;;5.87;4.97;;;;;;;;;;5015312;28;20186;-82
2021/10/19 00:29:30;;;;;;;7.03;6.05;;;;;;;;;;5022006;28;20949;-82
2021/10/19 00:31:56;;;;;;;6.00;5.40;;;;;;;;;;5021015;28;20187;-83
2021/10/19 00:34:22;;;;;;;6.33;5.70;;;;;;;;;;5024964;28;20465;-81
2021/10/19 00:36:48;;;;;;;7.70;5.93;;;;;;;;;;5023297;28;20548;-81
2021/10/19 00:39:15;;;;;;;6.20;5.60;;;;;;;;;;5022268;28;20206;-82
2021/10/19 00:41:41;;;;;;;7.93;6.68;;;;;;;;;;5021388;28;20178;-83
2021/10/19 00:44:07;;;;;;;9.82;6.25;;;;;;;;;;5020201;28;20214;-82
2021/10/19 00:46:33;;;;;;;9.60;5.45;;;;;;;;;;5024152;28;20221;-82
2021/10/19 00:48:59;;;;;;;6.37;5.37;;;;;;;;;;5016857;28;20186;-81
2021/10/19 00:51:25;;;;;;;6.50;5.80;;;;;;;;;;5018232;28;20438;-81
2021/10/19 00:53:51;;;;;;;7.70;6.10;;;;;;;;;;5019278;28;20446;-83
2021/10/19 00:56:17;;;;;;;6.50;5.22;;;;;;;;;;5018273;28;20206;-83
2021/10/19 00:58:43;;;;;;;7.13;6.10;;;;;;;;;;5018843;28;20185;-83
2021/10/19 01:01:10;;;;;;;6.88;5.85;;;;;;;;;;5023332;28;20189;-82
2021/10/19 01:03:36;;;;;;;6.93;6.03;;;;;;;;;;5025485;28;20187;-82
2021/10/19 01:06:03;;;;;;;6.68;5.35;;;;;;;;;;5025207;28;20182;-83
2021/10/19 01:08:30;;;;;;;5.40;4.93;;;;;;;;;;5026894;28;20205;-82
2021/10/19 01:10:56;;;;;;;6.22;5.63;;;;;;;;;;5038462;28;20182;-83
2021/10/19 01:13:22;;;;;;;6.65;5.68;;;;;;;;;;5025998;28;20179;-83
2021/10/19 01:15:49;;;;;;;6.60;6.00;;;;;;;;;;5023330;28;20262;-85
2021/10/19 01:18:17;;;;;;;6.10;5.50;;;;;;;;;;5022475;28;20182;-84
2021/10/19 01:20:44;;;;;;;6.22;5.50;;;;;;;;;;5029218;28;20186;-84
2021/10/19 01:23:10;;;;;;;5.65;5.03;;;;;;;;;;5023238;28;20183;-83
2021/10/19 01:25:37;;;;;;;6.22;5.63;;;;;;;;;;5019993;28;20185;-84
2021/10/19 01:28:07;;;;;;;6.45;5.65;;;;;;;;;;5023597;28;20209;-84
2021/10/19 01:30:33;;;;;;;7.03;5.40;;;;;;;;;;5023236;28;20189;-85
2021/10/19 01:32:59;;;;;;;6.05;5.40;;;;;;;;;;5017751;28;20182;-85
2021/10/19 01:35:31;;;;;;;5.38;4.88;;;;;;;;;;5025200;28;20213;-86
2021/10/19 01:37:57;;;;;;;6.28;5.40;;;;;;;;;;5015559;28;20627;-84
2021/10/19 01:40:23;;;;;;;13.43;5.83;;;;;;;;;;5019221;28;20184;-85
2021/10/19 01:42:49;;;;;;;8.20;5.80;;;;;;;;;;5021995;28;20438;-87
2021/10/19 01:45:17;;;;;;;6.97;5.30;;;;;;;;;;5021423;28;20605;-85
2021/10/19 01:47:43;;;;;;;6.55;6.00;;;;;;;;;;5017860;28;20418;-84
2021/10/19 01:50:10;;;;;;;6.32;5.72;;;;;;;;;;5020412;28;20178;-86
2021/10/19 01:52:36;;;;;;;6.65;6.05;;;;;;;;;;5020666;28;20258;-82
2021/10/19 01:55:04;;;;;;;6.72;6.03;;;;;;;;;;5020131;28;20187;-85
2021/10/19 01:57:30;;;;;;;8.77;5.75;;;;;;;;;;5022109;28;20240;-84
2021/10/19 01:59:56;;;;;;;8.90;6.20;;;;;;;;;;5019091;28;20190;-86
2021/10/19 02:02:22;;;;;;;6.57;5.60;;;;;;;;;;5020593;28;20182;-86
2021/10/19 02:04:48;;;;;;;6.45;5.65;;;;;;;;;;5024549;28;20934;-88
2021/10/19 02:07:14;;;;;;;12.00;5.60;;;;;;;;;;5017635;28;20206;-85
2021/10/19 02:09:40;;;;;;;10.50;6.20;;;;;;;;;;5020712;28;20453;-86
2021/10/19 02:12:06;;;;;;;6.40;5.73;;;;;;;;;;5023237;28;20518;-86
2021/10/19 02:14:32;;;;;;;7.70;5.40;;;;;;;;;;5028507;28;20421;-86
2021/10/19 02:16:58;;;;;;;6.10;5.53;;;;;;;;;;5024798;28;20216;-87
2021/10/19 02:19:26;;;;;;;6.00;5.50;;;;;;;;;;5023009;28;20433;-85
2021/10/19 02:21:55;;;;;;;8.55;5.40;;;;;;;;;;5023649;28;20425;-87
2021/10/19 02:24:21;;;;;;;8.65;5.93;;;;;;;;;;5024224;28;20590;-85
2021/10/19 02:26:47;;;;;;;7.65;5.43;;;;;;;;;;5018725;28;20178;-86
2021/10/19 02:29:14;;;;;;;11.20;6.28;;;;;;;;;;5019873;28;20204;-86
2021/10/19 02:31:40;;;;;;;9.77;6.13;;;;;;;;;;5017960;28;20210;-85
2021/10/19 02:34:06;;;;;;;9.85;5.90;;;;;;;;;;5018310;28;20193;-88
2021/10/19 02:36:33;;;;;;;8.45;6.07;;;;;;;;;;5023007;28;20213;-82
2021/10/19 02:38:59;;;;;;;8.38;5.80;;;;;;;;;;5018895;28;20174;-88
2021/10/19 02:41:26;;;;;;;13.02;5.45;;;;;;;;;;5019837;28;20628;-87
2021/10/19 02:43:52;;;;;;;6.28;5.65;;;;;;;;;;5015623;28;20245;-90
2021/10/19 02:46:18;;;;;;;7.17;5.30;;;;;;;;;;5013985;28;20178;-86
2021/10/19 02:48:44;;;;;;;7.13;5.32;;;;;;;;;;5021240;28;20486;-89
2021/10/19 02:51:10;;;;;;;7.40;5.88;;;;;;;;;;5023582;28;20182;-88
2021/10/19 02:53:36;;;;;;;7.88;5.65;;;;;;;;;;5018379;28;20265;-88
2021/10/19 02:56:02;;;;;;;8.93;6.40;;;;;;;;;;5034709;28;20602;-89
2021/10/19 02:58:28;;;;;;;7.00;6.30;;;;;;;;;;5018580;28;20440;-85
2021/10/19 03:00:54;;;;;;;9.60;6.50;;;;;;;;;;5020461;28;20234;-89
2021/10/19 03:03:20;;;;;;;7.53;6.00;;;;;;;;;;5021037;28;20437;-87
2021/10/19 03:05:46;;;;;;;7.43;5.40;;;;;;;;;;5030555;28;20422;-90
2021/10/19 03:08:12;;;;;;;7.30;6.40;;;;;;;;;;5034100;28;20457;-91
2021/10/19 03:10:38;;;;;;;9.43;6.47;;;;;;;;;;5017569;28;20448;-90
2021/10/19 03:13:04;;;;;;;6.22;5.22;;;;;;;;;;5018098;28;20774;-87
2021/10/19 03:15:30;;;;;;;6.30;5.67;;;;;;;;;;5022581;28;20186;-87
2021/10/19 03:17:56;;;;;;;6.93;6.20;;;;;;;;;;5018271;28;20459;-86
2021/10/19 03:20:22;;;;;;;9.97;6.03;;;;;;;;;;5014492;28;20421;-91
2021/10/19 03:22:48;;;;;;;8.70;5.68;;;;;;;;;;5017903;28;20457;-88
2021/10/19 03:25:14;;;;;;;9.83;5.87;;;;;;;;;;5017812;28;20225;-87
2021/10/19 03:27:40;;;;;;;8.47;5.67;;;;;;;;;;5022217;28;20504;-90
2021/10/19 03:30:06;;;;;;;8.80;6.00;;;;;;;;;;5017434;28;20512;-90
2021/10/19 03:32:32;;;;;;;9.10;6.30;;;;;;;;;;5022577;28;20428;-88
2021/10/19 03:34:58;;;;;;;6.60;6.00;;;;;;;;;;5018870;28;20178;-88
2021/10/19 03:37:25;;;;;;;7.38;5.85;;;;;;;;;;5025307;28;20194;-90
2021/10/19 03:39:51;;;;;;;6.28;5.65;;;;;;;;;;5028581;28;20215;-88
2021/10/19 03:42:17;;;;;;;9.17;5.40;;;;;;;;;;5018370;28;20543;-90
2021/10/19 03:44:43;;;;;;;10.93;5.95;;;;;;;;;;5022056;28;20465;-86
2021/10/19 03:47:09;;;;;;;9.70;6.28;;;;;;;;;;5022472;28;20200;-87
2021/10/19 03:49:35;;;;;;;14.63;5.70;;;;;;;;;;5021851;28;20178;-90
2021/10/19 03:52:01;;;;;;;7.68;5.95;;;;;;;;;;5023421;28;20666;-87
2021/10/19 03:54:27;;;;;;;12.75;8.25;;;;;;;;;;5025985;28;20640;-89
2021/10/19 03:56:53;;;;;;;14.00;6.45;;;;;;;;;;5021927;28;20205;-90
2021/10/19 03:59:19;;;;;;;6.60;5.50;;;;;;;;;;5023221;28;20782;-91
2021/10/19 04:01:45;;;;;;;7.70;6.90;;;;;;;;;;5022776;28;20353;-89
2021/10/19 04:04:11;;;;;;;7.80;6.00;;;;;;;;;;5016319;28;20219;-83
2021/10/19 04:06:38;;;;;;;10.10;5.78;;;;;;;;;;5023846;28;20478;-90
2021/10/19 04:09:04;;;;;;;9.10;6.90;;;;;;;;;;5025954;28;20216;-90
2021/10/19 04:11:30;;;;;;;7.72;5.78;;;;;;;;;;5021582;28;20722;-84
2021/10/19 04:13:56;;;;;;;6.57;5.93;;;;;;;;;;5037025;28;20191;-92
2021/10/19 04:16:22;;;;;;;8.68;5.88;;;;;;;;;;5021572;28;20585;-90
2021/10/19 04:18:48;;;;;;;8.57;6.15;;;;;;;;;;5025126;28;20206;-90
2021/10/19 04:21:14;;;;;;;7.60;5.55;;;;;;;;;;5025366;28;20175;-90
2021/10/19 04:23:40;;;;;;;6.33;5.30;;;;;;;;;;5026197;28;20197;-87
2021/10/19 04:26:06;;;;;;;6.13;5.53;;;;;;;;;;5037665;28;20456;-91
2021/10/19 04:28:33;;;;;;;8.70;5.90;;;;;;;;;;5020384;28;20625;-87
2021/10/19 04:30:59;;;;;;;6.55;5.18;;;;;;;;;;5028365;28;20302;-85
2021/10/19 04:33:25;;;;;;;7.93;6.03;;;;;;;;;;5026594;28;20182;-84
2021/10/19 04:35:51;;;;;;;7.50;5.93;;;;;;;;;;5030653;28;20209;-87
2021/10/19 04:38:17;;;;;;;10.85;5.88;;;;;;;;;;5018066;28;20515;-89
2021/10/19 04:40:43;;;;;;;6.03;5.22;;;;;;;;;;5025083;28;20229;-87
2021/10/19 04:43:09;;;;;;;6.03;5.43;;;;;;;;;;5020910;28;20187;-90
2021/10/19 04:45:35;;;;;;;6.47;5.77;;;;;;;;;;5024872;28;20484;-88
2021/10/19 04:48:01;;;;;;;6.27;5.47;;;;;;;;;;5021527;28;20423;-89
2021/10/19 04:50:28;;;;;;;8.07;5.20;;;;;;;;;;5022204;28;20425;-89
2021/10/19 04:52:54;;;;;;;5.65;5.10;;;;;;;;;;5023569;28;20182;-91
2021/10/19 04:55:20;;;;;;;6.30;5.30;;;;;;;;;;5025291;28;20194;-88
2021/10/19 04:57:46;;;;;;;5.47;5.00;;;;;;;;;;5023573;28;20191;-88
2021/10/19 05:00:12;;;;;;;7.30;5.85;;;;;;;;;;5025504;28;20532;-83
2021/10/19 05:02:45;;;;;;;8.30;5.50;;;;;;;;;;5030237;28;20182;-88
2021/10/19 05:05:11;;;;;;;5.47;4.97;;;;;;;;;;5022332;28;20632;-85
2021/10/19 05:07:37;;;;;;;6.15;5.50;;;;;;;;;;5018802;28;20233;-89
2021/10/19 05:10:03;;;;;;;7.00;5.53;;;;;;;;;;5022676;28;20237;-90
2021/10/19 05:12:29;;;;;;;6.53;4.85;;;;;;;;;;5025160;28;20423;-87
2021/10/19 05:14:57;;;;;;;6.73;5.87;;;;;;;;;;5020886;28;20198;-84
2021/10/19 05:17:23;;;;;;;6.00;5.40;;;;;;;;;;5021146;28;20496;-82
2021/10/19 05:19:49;;;;;;;8.98;6.20;;;;;;;;;;5015761;28;20237;-84
2021/10/19 05:22:15;;;;;;;7.63;5.63;;;;;;;;;;5020593;28;20266;-87
2021/10/19 05:24:41;;;;;;;7.18;5.50;;;;;;;;;;5019043;28;20184;-84
2021/10/19 05:27:07;;;;;;;6.17;5.43;;;;;;;;;;5021597;28;20216;-84
2021/10/19 05:29:33;;;;;;;6.67;5.53;;;;;;;;;;5020649;28;20457;-86
2021/10/19 05:31:59;;;;;;;6.07;5.47;;;;;;;;;;5023871;28;20429;-86
2021/10/19 05:34:25;;;;;;;5.83;5.33;;;;;;;;;;5024997;28;20495;-88
2021/10/19 05:36:52;;;;;;;6.47;5.82;;;;;;;;;;5022314;28;20523;-83
2021/10/19 05:39:18;;;;;;;6.10;5.25;;;;;;;;;;5017053;28;20561;-85
2021/10/19 05:41:44;;;;;;;5.90;5.30;;;;;;;;;;5019588;28;20238;-86
2021/10/19 05:44:10;;;;;;;5.80;5.20;;;;;;;;;;5023921;28;20469;-86
2021/10/19 05:46:36;;;;;;;8.45;5.45;;;;;;;;;;5019456;28;20440;-89
2021/10/19 05:49:03;;;;;;;6.77;5.43;;;;;;;;;;5020912;28;20195;-87
2021/10/19 05:51:29;;;;;;;7.43;5.88;;;;;;;;;;5023977;28;20453;-87
2021/10/19 05:53:55;;;;;;;6.80;5.43;;;;;;;;;;5025159;28;20238;-87
2021/10/19 05:56:21;;;;;;;5.37;4.87;;;;;;;;;;5024961;28;20252;-84
2021/10/19 05:58:47;;;;;;;7.70;5.43;;;;;;;;;;5019610;28;20436;-86
2021/10/19 06:01:13;;;;;;;8.40;5.80;;;;;;;;;;5019451;28;20982;-85
2021/10/19 06:03:39;;;;;;;6.85;5.13;;;;;;;;;;5020668;28;20460;-89
2021/10/19 06:06:09;;;;;;;7.35;5.22;;;;;;;;;;5024660;28;20210;-83
2021/10/19 06:08:35;;;;;;;8.20;5.55;;;;;;;;;;5021176;28;20197;-85
2021/10/19 06:11:01;;;;;;;8.68;5.43;;;;;;;;;;5020502;28;20186;-88
2021/10/19 06:13:27;;;;;;;6.63;6.03;;;;;;;;;;5026872;28;20186;-88
2021/10/19 06:15:53;;;;;;;5.75;5.25;;;;;;;;;;5019934;28;20470;-86
2021/10/19 06:18:19;;;;;;;7.28;6.25;;;;;;;;;;5022179;28;20197;-86
2021/10/19 06:20:48;;;;;;;6.25;5.65;;;;;;;;;;5019134;28;20192;-85
2021/10/19 06:23:14;;;;;;;7.65;5.57;;;;;;;;;;5024387;28;20173;-85
2021/10/19 06:25:40;;;;;;;7.05;6.35;;;;;;;;;;5015512;28;20187;-88
2021/10/19 06:28:06;;;;;;;8.57;5.80;;;;;;;;;;5019639;28;20237;-84
2021/10/19 06:30:32;;;;;;;10.43;5.67;;;;;;;;;;5019074;28;20210;-86
2021/10/19 06:32:58;;;;;;;11.93;6.13;;;;;;;;;;5018004;28;20934;-83
2021/10/19 06:35:24;;;;;;;7.40;6.70;;;;;;;;;;5015469;28;20448;-90
2021/10/19 06:37:50;;;;;;;6.55;4.95;;;;;;;;;;5018629;28;20185;-86
2021/10/19 06:40:16;;;;;;;9.40;6.28;;;;;;;;;;5024157;28;20193;-87
2021/10/19 06:42:42;;;;;;;8.40;6.07;;;;;;;;;;5022575;28;20179;-86
2021/10/19 06:45:10;;;;;;;6.50;5.80;;;;;;;;;;5021911;28;20469;-85
2021/10/19 06:47:36;;;;;;;9.18;6.28;;;;;;;;;;5015679;28;20182;-88
2021/10/19 06:50:04;;;;;;;9.57;5.63;;;;;;;;;;5034958;28;20179;-88
2021/10/19 06:52:30;;;;;;;8.00;6.15;;;;;;;;;;5018974;28;20903;-86
2021/10/19 06:54:58;;;;;;;6.40;5.90;;;;;;;;;;5020349;28;20555;-86
2021/10/19 06:57:27;;;;;;;7.32;6.13;;;;;;;;;;5022508;28;20256;-86
2021/10/19 06:59:53;;;;;;;6.00;5.47;;;;;;;;;;5027780;28;20595;-84
2021/10/19 07:02:19;;;;;;;6.20;5.70;;;;;;;;;;5019569;28;20627;-88
2021/10/19 07:04:45;;;;;;;7.20;5.65;;;;;;;;;;5019018;28;20987;-84
2021/10/19 07:07:11;;;;;;;8.88;6.05;;;;;;;;;;5022137;28;20189;-85
2021/10/19 07:09:37;;;;;;;7.57;5.40;;;;;;;;;;5022334;28;20194;-86
2021/10/19 07:12:03;;;;;;;6.22;5.60;;;;;;;;;;5018782;28;20441;-84
2021/10/19 07:14:30;;;;;;;6.65;5.90;;;;;;;;;;5027774;28;20175;-86
2021/10/19 07:16:56;;;;;;;8.65;6.00;;;;;;;;;;5014055;28;20206;-87
2021/10/19 07:19:22;;;;;;;8.05;5.00;;;;;;;;;;5018818;28;20191;-87
2021/10/19 07:21:49;;;;;;;6.50;5.90;;;;;;;;;;5014271;28;20851;-86
2021/10/19 07:24:15;;;;;;;5.80;5.18;;;;;;;;;;5018354;28;20175;-90
2021/10/19 07:26:41;;;;;;;6.00;5.00;;;;;;;;;;5020871;28;20228;-86
2021/10/19 07:29:07;;;;;;;6.73;5.80;;;;;;;;;;5014973;28;20424;-86
2021/10/19 07:31:33;;;;;;;9.35;6.03;;;;;;;;;;5015722;28;20513;-87
2021/10/19 07:33:59;;;;;;;6.13;5.13;;;;;;;;;;5016799;28;20710;-89
2021/10/19 07:36:26;;;;;;;6.00;5.47;;;;;;;;;;5019677;28;20220;-86
2021/10/19 07:38:52;;;;;;;7.90;6.03;;;;;;;;;;5016164;28;20217;-90
2021/10/19 07:41:18;;;;;;;8.68;6.05;;;;;;;;;;5021893;28;20179;-87
2021/10/19 07:43:44;;;;;;;7.72;5.65;;;;;;;;;;5016347;28;20186;-87
2021/10/19 07:46:10;;;;;;;8.15;6.28;;;;;;;;;;5016500;28;20191;-87
2021/10/19 07:48:37;;;;;;;6.83;5.67;;;;;;;;;;5019247;28;20187;-86
2021/10/19 07:51:03;;;;;;;8.10;5.25;;;;;;;;;;5017763;28;20448;-90
2021/10/19 07:53:29;;;;;;;6.30;5.70;;;;;;;;;;5010466;28;20198;-83
2021/10/19 07:55:55;;;;;;;8.73;5.97;;;;;;;;;;5019690;28;20205;-91
2021/10/19 07:58:21;;;;;;;10.07;6.47;;;;;;;;;;5012871;28;20195;-92
2021/10/19 08:00:47;;;;;;;6.38;5.50;;;;;;;;;;5018253;28;20464;-87
2021/10/19 08:03:13;;;;;;;7.67;5.43;;;;;;;;;;5032567;28;20175;-87
2021/10/19 08:05:41;;;;;;;7.33;5.90;;;;;;;;;;5009894;28;20456;-89
2021/10/19 08:08:12;;;;;;;7.03;6.32;;;;;;;;;;5032570;28;20429;-89
2021/10/19 08:10:39;;;;;;;7.32;6.63;;;;;;;;;;5018613;28;20233;-88
2021/10/19 08:13:06;;;;;;;7.40;6.65;;;;;;;;;;5019315;28;20182;-88
2021/10/19 08:15:32;;;;;;;8.15;6.70;;;;;;;;;;5019954;28;20540;-84
2021/10/19 08:17:59;;;;;;;7.47;6.68;;;;;;;;;;5022206;28;20178;-88
2021/10/19 08:20:25;;;;;;;7.95;5.90;;;;;;;;;;5017236;28;20182;-87
2021/10/19 08:22:51;;;;;;;6.40;5.80;;;;;;;;;;5021317;28;20245;-88
2021/10/19 08:25:17;;;;;;;9.43;6.30;;;;;;;;;;5017066;28;20183;-89
2021/10/19 08:27:44;;;;;;;10.55;7.65;;;;;;;;;;5017279;28;20464;-87
2021/10/19 08:30:11;;;;;;;7.38;6.65;;;;;;;;;;5022681;28;20202;-88
2021/10/19 08:32:37;;;;;;;11.40;6.05;;;;;;;;;;5019241;28;20179;-89
2021/10/19 08:35:04;;;;;;;7.20;6.37;;;;;;;;;;5025345;28;20202;-85
2021/10/19 08:37:32;;;;;;;7.07;6.00;;;;;;;;;;5024366;28;20469;-90
2021/10/19 08:39:58;;;;;;;7.75;6.30;;;;;;;;;;5023406;28;20182;-91
2021/10/19 08:42:24;;;;;;;7.32;6.38;;;;;;;;;;5025711;28;20305;-90
2021/10/19 08:44:50;;;;;;;8.07;6.13;;;;;;;;;;5019325;28;20234;-90
2021/10/19 08:47:16;;;;;;;7.40;6.17;;;;;;;;;;5023001;28;20454;-90
2021/10/19 08:49:42;;;;;;;6.90;5.85;;;;;;;;;;5020471;28;20434;-89
2021/10/19 08:52:10;;;;;;;7.68;6.85;;;;;;;;;;5023723;28;20576;-85
2021/10/19 08:54:36;;;;;;;8.48;6.22;;;;;;;;;;5020838;28;20199;-86
2021/10/19 08:57:03;;;;;;;7.15;5.65;;;;;;;;;;5025464;28;20260;-82
2021/10/19 08:59:29;;;;;;;6.72;5.57;;;;;;;;;;5021482;28;20225;-85
2021/10/19 09:01:56;;;;;;;6.32;5.32;;;;;;;;;;5024794;28;20174;-89
2021/10/19 09:04:26;;;;;;;6.60;5.70;;;;;;;;;;5023649;28;20198;-90
2021/10/19 09:06:52;;;;;;;7.60;6.85;;;;;;;;;;5021645;28;20334;-88
2021/10/19 09:09:24;;;;;;;6.33;5.73;;;;;;;;;;5022574;28;20190;-88
2021/10/19 09:11:50;;;;;;;8.15;6.50;;;;;;;;;;5023984;28;20479;-85
2021/10/19 09:14:17;;;;;;;7.53;6.05;;;;;;;;;;5036844;28;20266;-88
2021/10/19 09:16:44;;;;;;;9.50;5.63;;;;;;;;;;5020037;28;20226;-87
2021/10/19 09:19:11;;;;;;;6.50;5.63;;;;;;;;;;5025281;28;20187;-86
2021/10/19 09:21:42;;;;;;;8.40;5.30;;;;;;;;;;5024604;28;20209;-87
2021/10/19 09:24:20;;;;;;;7.78;5.43;;;;;;;;;;5021994;28;20186;-85
2021/10/19 09:27:13;;;;;;;6.50;5.65;;;;;;;;;;5020008;28;20174;-90
2021/10/19 09:29:44;;;;;;;8.27;5.05;;;;;;;;;;5019364;28;20186;-88
2021/10/19 09:32:12;;;;;;;6.85;5.28;;;;;;;;;;5025191;28;20202;-91
2021/10/19 09:34:38;;;;;;;7.80;5.45;;;;;;;;;;5020655;28;20281;-88
2021/10/19 09:37:05;;;;;;;5.53;4.63;;;;;;;;;;5017666;28;20199;-90
2021/10/19 09:39:33;;;;;;;6.88;5.75;;;;;;;;;;5024396;28;20178;-89
2021/10/19 09:42:00;;;;;;;5.65;5.18;;;;;;;;;;5020564;28;20174;-88
2021/10/19 09:44:26;;;;;;;6.07;5.32;;;;;;;;;;5025315;28;20559;-88
2021/10/19 09:46:52;;;;;;;5.60;5.05;;;;;;;;;;5020401;28;20216;-87
2021/10/19 09:49:18;;;;;;;7.10;5.63;;;;;;;;;;5020306;28;20218;-86
2021/10/19 09:51:44;;;;;;;5.80;4.80;;;;;;;;;;5023909;28;20451;-87
2021/10/19 09:54:12;;;;;;;6.45;5.85;;;;;;;;;;5022888;28;20246;-87
2021/10/19 09:56:41;;;;;;;6.65;5.95;;;;;;;;;;5020013;28;20202;-84
2021/10/19 09:59:07;;;;;;;5.57;5.03;;;;;;;;;;5021798;28;20188;-85
2021/10/19 10:01:34;;;;;;;5.57;5.07;;;;;;;;;;5024467;28;20186;-90
2021/10/19 10:04:01;;;;;;;5.88;5.32;;;;;;;;;;5026280;28;20271;-87
2021/10/19 10:06:30;;;;;;;6.45;5.20;;;;;;;;;;5016052;28;20271;-83
2021/10/19 10:08:57;;;;;;;5.28;4.78;;;;;;;;;;5015837;28;20194;-86
2021/10/19 10:11:23;;;;;;;5.30;4.78;;;;;;;;;;5018893;28;20187;-85
2021/10/19 10:13:59;;;;;;;6.38;5.10;;;;;;;;;;5020812;28;20250;-87
2021/10/19 10:16:26;;;;;;;5.20;4.80;;;;;;;;;;5015121;28;20206;-86
2021/10/19 10:18:52;;;;;;;6.65;5.25;;;;;;;;;;5018206;28;20210;-89
2021/10/19 10:21:20;;;;;;;6.75;5.68;;;;;;;;;;5022015;28;20189;-88
2021/10/19 10:23:47;;;;;;;5.35;4.85;;;;;;;;;;5018603;28;20187;-86
2021/10/19 10:26:23;;;;;;;6.63;6.03;;;;;;;;;;5019970;28;20181;-93
2021/10/19 10:28:50;;;;;;;6.22;5.63;;;;;;;;;;5019823;28;20185;-90
2021/10/19 10:31:21;;;;;;;5.30;4.80;;;;;;;;;;5024463;28;20193;-90
2021/10/19 10:33:49;;;;;;;6.07;5.43;;;;;;;;;;5011914;28;20186;-84
2021/10/19 10:36:15;;;;;;;9.45;7.22;;;;;;;;;;5010747;28;20211;-84
2021/10/19 10:38:55;;;;;;;6.88;5.20;;;;;;;;;;5035932;28;20183;-88
2021/10/19 10:41:22;;;;;;;6.10;5.15;;;;;;;;;;5015392;28;20194;-84
2021/10/19 10:43:58;;;;;;;9.35;4.57;;;;;;;;;;5010147;28;20183;-86
2021/10/19 10:46:24;;;;;;;7.28;5.13;;;;;;;;;;5021386;28;20531;-85
2021/10/19 10:48:51;;;;;;;7.18;5.38;;;;;;;;;;5015120;28;20253;-84
2021/10/19 10:51:30;;;;;;;6.40;5.80;;;;;;;;;;5015685;28;20444;-85
2021/10/19 10:53:56;;;;;;;5.43;4.88;;;;;;;;;;5037210;28;20890;-87
2021/10/19 10:56:22;;;;;;;5.97;5.43;;;;;;;;;;5014576;28;20282;-83
2021/10/19 10:58:50;;;;;;;7.07;5.70;;;;;;;;;;5018248;28;20186;-84
2021/10/19 11:01:16;;;;;;;5.65;4.90;;;;;;;;;;5016870;28;20186;-86
2021/10/19 11:03:45;;;;;;;5.10;4.60;;;;;;;;;;5020731;28;20206;-83
2021/10/19 11:06:12;;;;;;;6.15;5.65;;;;;;;;;;5023711;28;20186;-85
2021/10/19 11:08:38;;;;;;;6.03;5.53;;;;;;;;;;5011859;28;20184;-84
2021/10/19 11:11:07;;;;;;;6.18;4.60;;;;;;;;;;5033037;28;20225;-83
2021/10/19 11:13:44;;;;;;;7.05;5.53;;;;;;;;;;5013008;28;20174;-83
2021/10/19 11:16:11;;;;;;;7.40;5.30;;;;;;;;;;5018872;28;20262;-85
2021/10/19 11:18:37;;;;;;;5.90;5.30;;;;;;;;;;5013770;28;20718;-82
2021/10/19 11:21:03;;;;;;;5.63;5.13;;;;;;;;;;5021773;28;20197;-88
2021/10/19 11:23:29;;;;;;;5.28;4.78;;;;;;;;;;5018613;28;20185;-81
2021/10/19 11:25:59;;;;;;;5.85;5.35;;;;;;;;;;5016121;28;20179;-82
2021/10/19 11:28:25;;;;;;;5.43;4.93;;;;;;;;;;5011748;28;20352;-86
2021/10/19 11:30:51;;;;;;;6.45;5.15;;;;;;;;;;5008646;28;20281;-84
2021/10/19 11:33:17;;;;;;;6.90;5.37;;;;;;;;;;5021881;28;20182;-84
2021/10/19 11:35:43;;;;;;;6.45;5.10;;;;;;;;;;5017704;28;20436;-85
2021/10/19 11:38:09;;;;;;;5.25;4.85;;;;;;;;;;5013604;28;20202;-85
2021/10/19 11:40:35;;;;;;;7.63;5.50;;;;;;;;;;5016446;28;20182;-88
2021/10/19 11:43:02;;;;;;;6.10;5.50;;;;;;;;;;5020927;28;20409;-86
2021/10/19 11:45:29;;;;;;;8.60;5.00;;;;;;;;;;5021876;28;20226;-83
2021/10/19 11:47:57;;;;;;;6.30;5.80;;;;;;;;;;5021786;28;20186;-84
2021/10/19 11:50:24;;;;;;;9.07;5.35;;;;;;;;;;5014544;28;20260;-83
2021/10/19 11:52:51;;;;;;;8.68;5.22;;;;;;;;;;5019888;28;20186;-87
2021/10/19 11:55:17;;;;;;;9.57;4.75;;;;;;;;;;5020451;28;20198;-85
2021/10/19 11:57:47;;;;;;;5.03;4.63;;;;;;;;;;5020532;28;20281;-86
2021/10/19 12:00:13;;;;;;;4.43;4.13;;;;;;;;;;5020425;28;20186;-84
2021/10/19 12:02:48;;;;;;;5.45;4.90;;;;;;;;;;5023838;28;20207;-86
2021/10/19 12:05:14;;;;;;;4.43;4.00;;;;;;;;;;5011172;28;20182;-85
2021/10/19 12:07:48;;;;;;;5.25;4.20;;;;;;;;;;5008947;28;20187;-88
2021/10/19 12:10:14;;;;;;;4.65;4.15;;;;;;;;;;5027877;28;20234;-84
2021/10/19 12:12:50;;;;;;;4.85;4.35;;;;;;;;;;5021424;28;20185;-85
2021/10/19 12:15:24;;;;;;;4.80;4.40;;;;;;;;;;5038422;28;20192;-82
2021/10/19 12:17:54;;;;;;;5.10;4.22;;;;;;;;;;5019043;28;20219;-84
2021/10/19 12:20:20;;;;;;;4.30;3.88;;;;;;;;;;5024210;28;20168;-85
2021/10/19 12:22:46;;;;;;;4.35;3.60;;;;;;;;;;5026521;28;20194;-89
2021/10/19 12:25:12;;;;;;;4.20;3.90;;;;;;;;;;5023578;28;20184;-89
2021/10/19 12:27:38;;;;;;;4.83;3.97;;;;;;;;;;5022243;28;20443;-87
2021/10/19 12:30:15;;;;;;;4.85;4.35;;;;;;;;;;5025378;28;20472;-84
2021/10/19 12:32:41;;;;;;;3.25;3.00;;;;;;;;;;5013267;28;20187;-86
2021/10/19 12:35:09;;;;;;;3.88;3.58;;;;;;;;;;5019267;28;20189;-85
2021/10/19 12:37:35;;;;;;;3.55;3.25;;;;;;;;;;5019187;28;20216;-88
2021/10/19 12:40:04;;;;;;;4.15;3.85;;;;;;;;;;5021520;28;20252;-87
2021/10/19 12:42:30;;;;;;;6.50;3.65;;;;;;;;;;5015427;28;20584;-83
2021/10/19 12:44:56;;;;;;;3.90;3.60;;;;;;;;;;5017689;28;20647;-85
2021/10/19 12:47:22;;;;;;;3.50;3.20;;;;;;;;;;5031177;28;20436;-84
2021/10/19 12:49:48;;;;;;;3.37;3.10;;;;;;;;;;5029211;28;20193;-86
2021/10/19 12:52:14;;;;;;;4.25;3.85;;;;;;;;;;5012698;28;20444;-84
2021/10/19 12:54:40;;;;;;;4.13;3.73;;;;;;;;;;5021364;28;20187;-86
2021/10/19 12:57:06;;;;;;;3.20;2.90;;;;;;;;;;5017815;28;20564;-85
2021/10/19 12:59:32;;;;;;;4.13;3.55;;;;;;;;;;5018188;28;20437;-82
2021/10/19 13:02:00;;;;;;;3.90;2.95;;;;;;;;;;5018132;28;20189;-85
2021/10/19 13:04:26;;;;;;;4.03;3.67;;;;;;;;;;5016483;28;20317;-85
2021/10/19 13:06:52;;;;;;;3.63;3.33;;;;;;;;;;5013427;28;20581;-84
2021/10/19 13:09:18;;;;;;;3.50;3.20;;;;;;;;;;5021732;28;20247;-83
2021/10/19 13:11:44;;;;;;;6.53;3.80;;;;;;;;;;5018088;28;20185;-85
2021/10/19 13:14:11;;;;;;;3.10;2.80;;;;;;;;;;5032077;28;20421;-84
2021/10/19 13:16:37;;;;;;;2.70;2.50;;;;;;;;;;5016803;28;20468;-85
2021/10/19 13:19:03;;;;;;;3.15;2.85;;;;;;;;;;5027128;28;20193;-86
2021/10/19 13:21:29;;;;;;;3.15;2.85;;;;;;;;;;5025856;28;20185;-81
2021/10/19 13:23:55;;;;;;;3.77;3.47;;;;;;;;;;5018502;28;20204;-84
2021/10/19 13:26:21;;;;;;;2.80;2.60;;;;;;;;;;5023067;28;20764;-90
2021/10/19 13:28:47;;;;;;;3.30;3.00;;;;;;;;;;5017100;28;20430;-89
2021/10/19 13:31:13;;;;;;;3.22;2.90;;;;;;;;;;5014325;28;20453;-87
2021/10/19 13:33:39;;;;;;;2.93;2.73;;;;;;;;;;5020329;28;20263;-88
2021/10/19 13:36:05;;;;;;;3.20;3.00;;;;;;;;;;5024678;28;20478;-90
2021/10/19 13:38:32;;;;;;;4.60;3.00;;;;;;;;;;5014432;28;20419;-87
2021/10/19 13:40:58;;;;;;;3.25;3.05;;;;;;;;;;5020892;28;20190;-87
2021/10/19 13:43:24;;;;;;;2.60;2.40;;;;;;;;;;5024382;28;20190;-88
2021/10/19 13:45:51;;;;;;;5.33;3.10;;;;;;;;;;5022655;28;20230;-87
2021/10/19 13:48:17;;;;;;;3.77;3.10;;;;;;;;;;5023969;28;20433;-79
2021/10/19 13:50:43;;;;;;;4.93;3.07;;;;;;;;;;5029234;28;20456;-88
2021/10/19 13:53:09;;;;;;;3.27;2.97;;;;;;;;;;5036033;28;20396;-87
2021/10/19 13:55:36;;;;;;;6.70;3.00;;;;;;;;;;5019141;28;20464;-88
2021/10/19 13:58:02;;;;;;;2.83;2.63;;;;;;;;;;5021705;28;20472;-88
2021/10/19 14:00:28;;;;;;;6.93;2.97;;;;;;;;;;5013449;28;20439;-89
2021/10/19 14:02:54;;;;;;;3.80;2.77;;;;;;;;;;5028545;28;20432;-88
2021/10/19 14:05:20;;;;;;;3.43;2.90;;;;;;;;;;5024499;28;20448;-89
2021/10/19 14:07:46;;;;;;;3.13;2.90;;;;;;;;;;5021565;28;20947;-91
2021/10/19 14:10:12;;;;;;;2.80;2.60;;;;;;;;;;5014135;28;20522;-87
2021/10/19 14:12:38;;;;;;;3.40;3.20;;;;;;;;;;5013453;28;20437;-87
2021/10/19 14:15:05;;;;;;;2.37;2.17;;;;;;;;;;5019975;28;20437;-87
2021/10/19 14:17:31;;;;;;;2.77;2.57;;;;;;;;;;5023419;28;20468;-85
2021/10/19 14:19:57;;;;;;;5.27;2.93;;;;;;;;;;5015609;28;20421;-86
2021/10/19 14:22:24;;;;;;;2.83;2.63;;;;;;;;;;5019117;28;20423;-88
2021/10/19 14:24:50;;;;;;;2.83;2.50;;;;;;;;;;5022066;28;20449;-88
2021/10/19 14:27:16;;;;;;;2.30;2.13;;;;;;;;;;5020504;28;20464;-89
2021/10/19 14:29:44;;;;;;;2.50;2.30;;;;;;;;;;5028902;28;20505;-87
2021/10/19 14:32:10;;;;;;;3.00;2.80;;;;;;;;;;5018742;28;20422;-87
2021/10/19 14:34:36;;;;;;;3.47;2.53;;;;;;;;;;5031332;28;20472;-87
2021/10/19 14:37:02;;;;;;;4.47;2.90;;;;;;;;;;5020494;28;20464;-90
2021/10/19 14:39:28;;;;;;;3.07;2.33;;;;;;;;;;5021512;28;20467;-86